Bookmark and Share
Track history (hours):
 

Hdms Esbern Snare

Last reported at 2013-Dec-28 21:20 UTC. Time now 2014-Apr-16 05:15 UTC.
Position N 34°37' E 033°24'.
Warning: this ship's position is months out of date.

Length 137 m.

Type: Military. MMSI: 36699999.

NotesDate/timePositionNaut miles runAvg speedWind from/ knotsBaromVisibWave heightAir tempDewpointWater temp
2013-Dec-28 21:20N 34°37' E 033°24'7 8.9
2013-Dec-28 20:33N 34°37' E 033°16'2 2.4
2013-Dec-28 19:34N 34°37' E 033°13'9 8.7
2013-Dec-28 18:34N 34°39' E 033°03'1 1.4
2013-Dec-28 17:31N 34°39' E 033°01'0 0.0
2013-Dec-28 16:31N 34°39' E 033°01'0 0.0
2013-Dec-28 15:31N 34°39' E 033°01'0 0.0
2013-Dec-28 14:31N 34°39' E 033°01'0 0.0
2013-Dec-28 13:31N 34°39' E 033°01'0 0.0
2013-Dec-28 12:31N 34°39' E 033°01'0 0.0
2013-Dec-28 11:31N 34°39' E 033°01'0 0.0
2013-Dec-28 10:28N 34°39' E 033°01'0 0.0
2013-Dec-28 09:31N 34°39' E 033°01'0 0.0
2013-Dec-28 08:31N 34°39' E 033°01'0 0.0
2013-Dec-28 07:34N 34°39' E 033°01'0 0.0
2013-Dec-26 17:27N 34°39' E 033°01'0 0.0
2013-Dec-26 16:33N 34°39' E 033°01'0 0.0
2013-Dec-26 15:33N 34°39' E 033°01'0 0.0
2013-Dec-26 14:32N 34°39' E 033°01'0 0.0
2013-Dec-26 13:32N 34°39' E 033°01'0 0.0
2013-Dec-26 12:32N 34°39' E 033°01'0 0.0
2013-Dec-26 11:32N 34°39' E 033°01'0 0.1
2013-Dec-26 10:33N 34°39' E 033°01'3 2.8
2013-Dec-26 09:33N 34°39' E 033°05'0 0.5
2013-Dec-26 08:33N 34°39' E 033°04'1514.9
2013-Dec-26 07:33N 34°36' E 033°22'2 2.0
2013-Dec-26 06:26N 34°35' E 033°24'1618.2
2013-Dec-26 05:33N 34°39' E 033°05'1 0.7
2013-Dec-26 04:33N 34°39' E 033°06'1413.6
2013-Dec-26 03:33N 34°38' E 033°23'7 2.2
2013-Dec-26 00:27N 34°43' E 033°28'4 4.9
2013-Dec-25 23:33N 34°40' E 033°24'4 0.6
2013-Dec-25 16:15N 34°37' E 033°28'7 9.9
2013-Dec-25 15:31N 34°38' E 033°20'1010.4
2013-Dec-25 14:33N 34°38' E 033°08'1 0.7
2013-Dec-25 13:34N 34°38' E 033°07'9 8.6
2013-Dec-25 12:33N 34°34' E 033°16'1110.6
2013-Dec-25 11:34N 34°39' E 033°05'2 1.5
2013-Dec-25 10:31N 34°41' E 033°05'0 0.0
2013-Dec-25 09:31N 34°41' E 033°05'0 0.0
2013-Dec-25 08:31N 34°41' E 033°05'0 0.1
2013-Dec-25 07:31N 34°41' E 033°05'0 0.0
2013-Dec-25 06:31N 34°41' E 033°05'0 0.0
2013-Dec-25 05:31N 34°41' E 033°05'0 0.0
2013-Dec-25 04:31N 34°41' E 033°05'0 0.0
2013-Dec-25 03:34N 34°41' E 033°05'0 0.0
2013-Dec-25 02:34N 34°41' E 033°05'0 0.0
2013-Dec-25 01:33N 34°41' E 033°05'0 0.0
2013-Dec-25 00:34N 34°41' E 033°05'0 0.0
2013-Dec-24 23:34N 34°41' E 033°05'0 0.0
2013-Dec-24 22:34N 34°41' E 033°05'0 0.0
2013-Dec-24 21:34N 34°41' E 033°05'0 0.0
2013-Dec-24 20:34N 34°41' E 033°05'0 0.0
2013-Dec-24 19:34N 34°41' E 033°05'0 0.0
2013-Dec-24 18:34N 34°41' E 033°05'0 0.0
2013-Dec-24 17:33N 34°41' E 033°05'0 0.0
2013-Dec-24 16:33N 34°41' E 033°05'0 0.0
2013-Dec-24 15:33N 34°41' E 033°05'0 0.1
2013-Dec-24 14:33N 34°41' E 033°05'0 0.0
2013-Dec-24 13:33N 34°41' E 033°05'0 0.0
2013-Dec-24 12:33N 34°41' E 033°05'0 0.0
2013-Dec-24 11:33N 34°41' E 033°05'1 0.7
2013-Dec-24 10:33N 34°40' E 033°05'0 0.2
2013-Dec-24 09:33N 34°40' E 033°05'3 3.4
2013-Dec-24 08:34N 34°40' E 033°09'15 3.0
2013-Dec-24 03:32N 34°42' E 033°28'6 6.2
2013-Dec-24 02:33N 34°36' E 033°28'13 9.1
2013-Dec-24 01:05N 34°42' E 033°43'4 0.2
2013-Dec-23 08:13N 34°45' E 033°40'2 2.1
2013-Dec-23 07:25N 34°46' E 033°38'10 2.2
2013-Dec-23 03:03N 34°42' E 033°28'1 2.6
2013-Dec-23 02:33N 34°42' E 033°26'5 1.4
2013-Dec-22 23:09N 34°37' E 033°28'0 0.1
2013-Dec-22 20:25N 34°37' E 033°28'8 9.4
2013-Dec-22 19:33N 34°38' E 033°18'2 1.8
2013-Dec-22 18:33N 34°39' E 033°16'0 0.5
2013-Dec-22 17:33N 34°39' E 033°17'1 1.2
2013-Dec-22 16:33N 34°39' E 033°15'6 6.1
2013-Dec-22 15:33N 34°40' E 033°08'5 4.9
2013-Dec-22 14:33N 34°39' E 033°02'1 0.7
2013-Dec-22 13:33N 34°39' E 033°01'0 0.0
2013-Dec-22 12:33N 34°39' E 033°01'0 0.0
2013-Dec-22 11:33N 34°39' E 033°01'0 0.0
2013-Dec-22 10:33N 34°39' E 033°01'0 0.0
2013-Dec-22 09:33N 34°39' E 033°01'0 0.0
2013-Dec-22 08:33N 34°39' E 033°01'0 0.0
2013-Dec-22 07:33N 34°39' E 033°01'0 0.0
2013-Dec-22 06:33N 34°39' E 033°01'0 0.0
2013-Dec-22 05:33N 34°39' E 033°01'0 0.0
2013-Dec-22 04:33N 34°39' E 033°01'0 0.0
2013-Dec-22 03:33N 34°39' E 033°01'0 0.0
2013-Dec-22 02:33N 34°39' E 033°01'0 0.0
2013-Dec-22 01:33N 34°39' E 033°01'0 0.0
2013-Dec-22 00:33N 34°39' E 033°01'0 0.0
2013-Dec-21 23:32N 34°39' E 033°01'0 0.0
2013-Dec-21 22:32N 34°39' E 033°01'0 0.0
2013-Dec-21 21:32N 34°39' E 033°01'0 0.0
2013-Dec-21 20:32N 34°39' E 033°01'0 0.0
2013-Dec-21 19:32N 34°39' E 033°01'0 0.0
2013-Dec-21 18:29N 34°39' E 033°01'0 0.0
2013-Dec-21 17:32N 34°39' E 033°01'0 0.0
2013-Dec-21 16:32N 34°39' E 033°01'0 0.0
2013-Dec-21 15:29N 34°39' E 033°01'0 0.0
2013-Dec-21 14:32N 34°39' E 033°01'0 0.0
2013-Dec-21 13:32N 34°39' E 033°01'0 0.0
2013-Dec-21 12:32N 34°39' E 033°01'0 0.0
2013-Dec-21 11:32N 34°39' E 033°01'0 0.0
2013-Dec-21 10:32N 34°39' E 033°01'0 0.0
2013-Dec-21 09:32N 34°39' E 033°01'0 0.0
2013-Dec-21 08:32N 34°39' E 033°01'0 0.0
2013-Dec-21 07:32N 34°39' E 033°01'0 0.0
2013-Dec-21 06:32N 34°39' E 033°01'0 0.0
2013-Dec-21 05:32N 34°39' E 033°01'0 0.0
2013-Dec-21 04:32N 34°39' E 033°01'0 0.0
2013-Dec-21 03:32N 34°39' E 033°01'0 0.0
2013-Dec-21 02:32N 34°39' E 033°01'0 0.0
2013-Dec-21 01:32N 34°39' E 033°01'0 0.0
2013-Dec-21 00:32N 34°39' E 033°01'0 0.0
2013-Dec-20 23:32N 34°39' E 033°01'0 0.0
2013-Dec-20 22:32N 34°39' E 033°01'0 0.0
2013-Dec-20 21:32N 34°39' E 033°01'0 0.0
2013-Dec-20 20:32N 34°39' E 033°01'0 0.0
2013-Dec-20 19:32N 34°39' E 033°01'0 0.0
2013-Dec-20 18:32N 34°39' E 033°01'0 0.0
2013-Dec-20 17:32N 34°39' E 033°01'0 0.0
2013-Dec-20 16:31N 34°39' E 033°01'0 0.0
2013-Dec-20 15:31N 34°39' E 033°01'0 0.0
2013-Dec-20 14:31N 34°39' E 033°01'0 0.0
2013-Dec-20 13:31N 34°39' E 033°01'0 0.0
2013-Dec-20 12:31N 34°39' E 033°01'0 0.0
2013-Dec-20 11:31N 34°39' E 033°01'0 0.0
2013-Dec-20 10:31N 34°39' E 033°01'0 0.0
2013-Dec-20 09:31N 34°39' E 033°01'0 0.0
2013-Dec-20 08:31N 34°39' E 033°01'0 0.0
2013-Dec-20 07:31N 34°39' E 033°01'0 0.0
2013-Dec-20 06:31N 34°39' E 033°01'0 0.0
2013-Dec-20 05:31N 34°39' E 033°01'0 0.0
2013-Dec-20 04:31N 34°39' E 033°01'0 0.0
2013-Dec-20 03:31N 34°39' E 033°01'0 0.0
2013-Dec-20 02:31N 34°39' E 033°01'0 0.0
2013-Dec-20 01:31N 34°39' E 033°01'0 0.0
2013-Dec-20 00:31N 34°39' E 033°01'0 0.0
2013-Dec-19 23:31N 34°39' E 033°01'0 0.0
2013-Dec-19 22:31N 34°39' E 033°01'0 0.0
2013-Dec-19 21:31N 34°39' E 033°01'0 0.0
2013-Dec-19 20:31N 34°39' E 033°01'0 0.0
2013-Dec-19 19:31N 34°39' E 033°01'0 0.0
2013-Dec-19 18:31N 34°39' E 033°01'0 0.0
2013-Dec-19 17:31N 34°39' E 033°01'0 0.0
2013-Dec-19 16:31N 34°39' E 033°01'0 0.0
2013-Dec-19 15:31N 34°39' E 033°01'0 0.0
2013-Dec-19 14:31N 34°39' E 033°01'0 0.0
2013-Dec-19 13:31N 34°39' E 033°01'0 0.0
2013-Dec-19 12:31N 34°39' E 033°01'0 0.0
2013-Dec-19 11:31N 34°39' E 033°01'0 0.0
2013-Dec-19 10:31N 34°39' E 033°01'1 0.9
2013-Dec-19 09:34N 34°39' E 033°02'4 3.7
2013-Dec-19 08:33N 34°38' E 033°06'1514.7
2013-Dec-19 07:34N 34°31' E 033°22'4 2.1
2013-Dec-19 05:31N 34°29' E 033°27'5 5.4
2013-Dec-19 04:34N 34°29' E 033°21'2 2.1
2013-Dec-19 03:34N 34°31' E 033°21'  

Dump ship's entire track history

sailing weather and tide predictions

Hdms Esbern Snare — OUFB — position and weather